CERCS-SANT JORDI (Berguèdà)





Hora UTC 17:50
Temperatura 17.7 ºC
Humedad 44.9 %
Presión 1010.6 hPa
Pluja 0.0 mm
Velocidad viento 6.9 km/h
Dirección viento SSE
Radiación solar 16.6 W/m²

Datos diarios 2024-04-16



Hora UTC (invierno +1h; verano +2h)
Temperatura (ºC) Humedad (%) Presión (hPa) Velocidad viento (km/h) Precipitación (mm) Radiación solar (W/m²)
Hora UTC Aire Humedad Presión Vel. Dir. Vel. Max Dir. Intent. máx 5 min. Rad. Sol.
00:05 11.9 75.0 1016.5 1.4 WSW 1.4 WSW 0.0 0.2
00:10 11.9 75.0 1016.4 0.0 NNE 0.0 WSW 0.0 0.1
00:15 11.8 75.4 1016.4 0.0 NNE 0.0 WSW 0.0 0.2
00:20 11.7 75.9 1016.4 0.0 NNE 0.0 WSW 0.0 0.1
00:25 11.6 76.4 1016.3 0.0 NNE 0.0 W 0.0 0.1
00:30 11.6 76.7 1016.3 0.0 NNW 3.4 N 0.0 0.1
00:35 11.6 77.0 1016.3 0.3 S 3.4 SSE 0.0 0.1
00:40 11.4 77.3 1016.2 0.0 NNE 0.0 S 0.0 0.1
00:45 11.3 77.9 1016.2 1.8 W 6.1 WNW 0.0 0.2
00:50 11.2 78.2 1016.2 0.9 W 6.1 WNW 0.0 0.1
00:55 11.3 77.6 1016.1 0.0 NNE 0.0 W 0.0 0.1
01:00 11.1 77.6 1016.1 0.0 NNE 0.0 ENE 0.0 0.2
01:05 10.9 79.1 1016.1 0.0 NNE 0.0 S 0.0 0.1
01:10 11.1 78.8 1016.1 1.3 NE 6.1 NNE 0.0 0.1
01:15 11.0 78.3 1015.9 0.0 E 3.4 E 0.0 0.2
01:20 10.8 79.4 1015.8 0.0 NNE 0.0 E 0.0 0.1
01:25 10.6 79.7 1015.8 0.0 NNE 0.0 E 0.0 0.2
01:30 10.4 80.6 1015.8 0.0 NNE 0.0 S 0.0 0.2
01:35 10.2 81.5 1015.7 0.0 NNE 0.0 SW 0.0 0.2
01:40 10.0 82.1 1015.7 0.0 NNE 0.0 SW 0.0 0.1
01:45 9.9 82.4 1015.6 0.0 NNE 0.0 SW 0.0 0.2
01:50 9.8 82.5 1015.6 0.0 NNE 0.0 WSW 0.0 0.1
01:55 9.8 82.5 1015.5 0.0 NNE 0.0 WSW 0.0 0.2
02:00 9.8 82.9 1015.5 1.6 SSW 6.1 SSW 0.0 0.1
02:05 9.8 82.6 1015.6 1.9 SW 6.1 SW 0.0 0.2
02:10 9.7 82.5 1015.5 0.7 SW 3.4 SSW 0.0 0.2
02:15 9.6 83.0 1015.5 0.3 SW 3.4 SW 0.0 0.2
02:20 9.6 83.4 1015.5 0.0 NNE 0.0 SW 0.0 0.2
02:25 9.6 83.6 1015.5 0.0 NNE 0.0 SW 0.0 0.2
02:30 9.5 83.7 1015.4 0.0 NNE 0.0 SSW 0.0 0.2
02:35 9.4 83.8 1015.4 0.0 NNE 0.0 SSW 0.0 0.2
02:40 9.4 84.6 1015.5 0.0 NNE 0.0 SSW 0.0 0.2
02:45 9.4 84.4 1015.5 0.0 NNE 0.0 SE 0.0 0.2
02:50 9.2 84.6 1015.5 0.0 NNE 0.0 SSW 0.0 0.2
02:55 9.1 85.0 1015.4 0.4 SW 3.4 SSW 0.0 0.2
03:00 9.0 85.1 1015.4 0.2 SW 3.4 SSW 0.0 0.2
03:05 9.0 85.6 1015.4 0.0 NNE 0.0 WSW 0.0 0.2
03:10 8.9 85.6 1015.3 0.3 SSW 3.4 SSW 0.0 0.2
03:15 8.7 86.1 1015.2 1.4 SW 6.1 SW 0.0 0.2
03:20 8.6 86.6 1015.1 2.3 WSW 6.1 WSW 0.0 0.2
03:25 8.6 86.8 1015.1 0.5 SW 3.4 SW 0.0 0.1
03:30 8.6 86.8 1015.0 0.0 NNE 0.0 SW 0.0 0.2
03:35 8.4 86.7 1015.0 0.0 NNE 0.0 SSW 0.0 0.1
03:40 8.4 87.4 1015.1 0.1 SW 3.4 SSW 0.0 0.2
03:45 8.4 87.8 1015.2 1.2 ENE 6.1 ENE 0.0 0.2
03:50 8.5 87.4 1015.2 0.8 ENE 6.1 ENE 0.0 0.1
03:55 8.4 86.9 1015.1 0.5 S 6.1 S 0.0 0.2
04:00 8.0 88.1 1015.0 1.2 W 6.1 W 0.0 0.2
04:05 8.1 88.8 1015.0 1.3 W 6.1 WNW 0.0 0.1
04:10 8.1 88.7 1014.8 0.0 S 3.4 S 0.0 0.2
04:15 8.0 88.3 1014.8 0.6 WSW 3.4 WSW 0.0 0.1
04:20 8.0 88.9 1014.8 0.3 WSW 3.4 SW 0.0 0.1
04:25 7.9 88.8 1014.8 0.7 WNW 6.1 WNW 0.0 0.1
04:30 8.1 88.9 1014.9 0.0 NNE 0.0 NNE 0.0 0.2
04:35 8.1 88.3 1015.0 0.9 ESE 6.1 ESE 0.0 0.2
04:40 7.9 88.2 1015.0 0.9 NW 6.1 NNW 0.0 0.2
04:45 7.8 88.9 1014.9 0.5 S 3.4 NW 0.0 0.2
04:50 7.7 89.1 1014.9 0.0 NNE 0.0 SSE 0.0 0.3
04:55 7.7 89.6 1014.9 0.0 NNE 0.0 SSE 0.0 0.6
05:00 7.7 89.3 1014.8 0.0 NNE 0.0 SSE 0.0 1.4
05:05 7.6 89.5 1014.8 0.0 ESE 3.4 ESE 0.0 2.5
05:10 7.7 89.1 1014.9 0.3 SSE 6.1 SE 0.0 3.6
05:15 7.4 89.0 1015.0 0.0 NNE 0.0 SSW 0.0 4.7
05:20 7.3 89.5 1015.0 0.7 SW 3.4 SW 0.0 5.9
05:25 7.3 90.0 1015.0 1.2 SW 6.1 WSW 0.0 6.9
05:30 7.2 90.3 1015.0 2.0 SW 6.1 WSW 0.0 8.5
05:35 7.1 90.7 1014.9 0.6 SSW 3.4 SSW 0.0 8.9
05:40 7.1 91.2 1015.0 0.1 NE 3.4 NE 0.0 9.4
05:45 7.1 91.2 1015.0 0.0 NNW 3.4 NNW 0.0 10.5
05:50 7.1 91.0 1015.0 0.0 NNE 0.0 NNW 0.0 13.4
05:55 7.1 91.0 1014.9 1.5 WSW 6.1 WSW 0.0 31.5
06:00 7.3 91.0 1014.9 0.0 NNE 0.0 WSW 0.0 30.6
06:05 7.4 90.8 1014.9 0.0 NNE 0.0 S 0.0 28.5
06:10 7.7 90.2 1014.9 0.8 ENE 6.1 E 0.0 31.2
06:15 7.8 89.4 1014.9 0.8 S 6.1 SSW 0.0 30.3
06:20 7.9 88.9 1014.9 0.0 NNE 0.0 S 0.0 30.1
06:25 8.1 87.5 1014.9 0.4 NE 6.1 NE 0.0 32.7
06:30 8.4 86.6 1014.9 0.6 NE 6.1 NE 0.0 56.0
06:35 8.3 86.0 1014.8 0.6 S 6.1 S 0.0 35.8
06:40 8.4 86.5 1014.9 1.3 E 6.1 SSE 0.0 42.5
06:45 8.6 84.6 1014.9 1.0 E 6.1 ENE 0.0 51.2
06:50 8.6 85.0 1014.9 0.3 ESE 6.1 ENE 0.0 49.0
06:55 8.6 85.3 1014.9 2.4 S 6.1 S 0.0 51.4
07:00 8.5 85.4 1014.9 0.5 WNW 6.1 WNW 0.0 53.8
07:05 8.7 84.3 1014.8 1.5 SSE 6.1 SSE 0.0 51.8
07:10 8.8 84.5 1014.7 1.0 ESE 6.1 ESE 0.0 51.9
07:15 9.1 82.8 1014.7 1.0 E 8.8 SE 0.0 48.1
07:20 9.3 81.9 1014.6 3.6 SSE 8.8 ESE 0.0 46.5
07:25 9.6 80.5 1014.6 2.8 ESE 6.1 S 0.0 45.8
07:30 9.9 79.6 1014.5 1.9 SE 6.1 ESE 0.0 42.0
07:35 10.2 77.4 1014.5 0.5 SSE 6.1 SSE 0.0 43.0
07:40 10.4 77.0 1014.4 1.5 SSE 6.1 SE 0.0 49.2
07:45 10.6 76.1 1014.3 0.7 SSW 6.1 SSW 0.0 42.2
07:50 10.9 74.1 1014.4 2.0 NE 8.8 NE 0.0 42.6
07:55 10.9 73.7 1014.4 2.1 E 8.8 S 0.0 42.1
08:00 11.3 72.5 1014.4 2.2 SSE 8.8 SSW 0.0 43.1
08:05 11.5 71.0 1014.4 3.7 ESE 11.5 SSE 0.0 55.6
08:10 11.5 70.1 1014.3 6.0 E 11.5 ESE 0.0 163.7
08:15 11.6 70.0 1014.4 4.4 E 8.8 ESE 0.0 370.7
08:20 12.2 68.6 1014.4 4.2 ESE 8.8 ENE 0.0 485.5
08:25 12.6 66.4 1014.4 4.1 ESE 11.5 ENE 0.0 500.9
08:30 13.1 64.5 1014.4 3.2 SE 11.5 NE 0.0 515.2
08:35 13.5 62.7 1014.4 6.9 SE 16.9 SE 0.0 526.3
08:40 13.8 61.9 1014.4 7.0 SE 16.9 SE 0.0 539.4
08:45 14.1 60.4 1014.3 7.4 SE 16.9 SE 0.0 551.3
08:50 14.4 59.6 1014.3 4.8 SE 16.9 ESE 0.0 562.4
08:55 14.4 59.3 1014.3 4.8 SE 14.2 SE 0.0 574.3
09:00 14.5 59.3 1014.3 5.5 SE 16.9 SSE 0.0 585.8
09:05 14.9 57.5 1014.3 7.3 SE 19.6 S 0.0 596.1
09:10 15.0 57.0 1014.3 5.9 ESE 14.2 E 0.0 607.7
09:15 15.0 56.8 1014.2 6.1 SE 14.2 E 0.0 617.7
09:20 15.2 57.0 1014.2 7.4 SE 16.9 ESE 0.0 627.9
09:25 15.5 56.2 1014.2 5.6 ESE 16.9 ESE 0.0 638.6
09:30 16.1 55.0 1014.1 6.7 SE 19.6 SE 0.0 648.3
09:35 16.1 54.2 1014.1 7.5 SE 22.3 S 0.0 655.9
09:40 16.2 54.3 1014.1 7.7 SE 16.9 SE 0.0 665.5
09:45 16.3 53.6 1014.1 6.3 SE 16.9 ESE 0.0 675.6
09:50 16.4 53.2 1014.1 6.3 SE 22.3 SE 0.0 686.4
09:55 16.6 52.8 1014.1 6.6 SSE 19.6 SE 0.0 695.3
10:00 16.4 52.3 1014.1 8.4 ESE 25.0 ESE 0.0 702.1
10:05 16.4 52.6 1014.1 9.6 SE 25.0 E 0.0 705.7
10:10 16.5 52.3 1014.0 8.3 SSE 27.7 SE 0.0 711.9
10:15 16.8 51.4 1014.0 7.8 SSE 19.6 SE 0.0 718.2
10:20 16.8 51.4 1014.0 7.4 SE 19.6 ESE 0.0 726.5
10:25 17.2 50.2 1014.0 7.3 SSE 16.9 SE 0.0 731.0
10:30 17.2 50.3 1014.0 7.6 SSE 19.6 SSE 0.0 739.9
10:35 17.5 49.4 1013.9 9.7 SE 19.6 ESE 0.0 739.4
10:40 17.2 50.3 1013.8 8.8 SSE 16.9 ESE 0.0 748.9
10:45 17.8 49.2 1013.8 7.7 SE 19.6 SSW 0.0 753.6
10:50 18.2 47.5 1013.7 6.9 SE 16.9 ESE 0.0 758.4
10:55 18.1 47.6 1013.6 10.7 SE 22.3 SSE 0.0 763.0
11:00 18.2 47.4 1013.6 8.8 SE 22.3 SSW 0.0 767.0
11:05 18.2 47.3 1013.6 8.9 SE 25.0 SE 0.0 769.8
11:10 18.3 47.3 1013.5 8.6 SE 27.7 SE 0.0 771.5
11:15 18.4 46.9 1013.4 8.0 SE 22.3 SE 0.0 776.1
11:20 18.2 47.1 1013.3 8.1 ESE 19.6 ESE 0.0 778.0
11:25 18.3 47.2 1013.3 6.7 ESE 19.6 SE 0.0 780.9
11:30 18.5 46.8 1013.2 9.1 ESE 22.3 ESE 0.0 781.5
11:35 18.7 46.4 1013.1 10.4 SE 22.3 ESE 0.0 783.9
11:40 18.7 46.5 1013.1 8.8 SE 22.3 SE 0.0 781.1
11:45 18.9 46.3 1013.0 9.7 SSE 19.6 SSE 0.0 760.5
11:50 19.0 45.5 1012.9 7.6 ESE 16.9 SE 0.0 778.7
11:55 19.1 45.8 1012.9 5.7 ESE 16.9 E 0.0 770.7
12:00 19.4 44.9 1012.9 5.4 SSE 14.2 SE 0.0 787.3
12:05 19.6 44.3 1012.8 6.8 ESE 16.9 ESE 0.0 778.9
12:10 19.8 44.1 1012.8 5.2 ESE 11.5 E 0.0 784.7
12:15 20.0 43.8 1012.7 9.8 SE 19.6 SE 0.0 784.4
12:20 19.8 44.0 1012.7 9.4 SSE 19.6 E 0.0 776.9
12:25 20.0 44.1 1012.7 7.2 SSE 19.6 SE 0.0 768.5
12:30 20.2 42.7 1012.6 6.0 SE 16.9 SSE 0.0 776.3
12:35 19.8 43.3 1012.5 11.5 SE 25.0 SSE 0.0 775.7
12:40 19.8 43.3 1012.5 5.4 ESE 16.9 ESE 0.0 771.0
12:45 20.3 42.4 1012.4 5.3 ESE 16.9 ESE 0.0 767.0
12:50 20.7 41.5 1012.3 6.7 SSE 25.0 SE 0.0 764.9
12:55 20.7 41.0 1012.4 6.2 ESE 19.6 SSE 0.0 762.4
13:00 20.6 41.0 1012.2 5.0 ESE 14.2 S 0.0 757.8
13:05 20.4 40.9 1012.2 5.7 ESE 14.2 ENE 0.0 752.9
13:10 20.0 41.6 1012.1 7.9 ESE 19.6 SE 0.0 747.9
13:15 20.6 40.9 1012.1 5.6 ESE 16.9 S 0.0 744.0
13:20 20.6 40.0 1012.0 6.9 ESE 16.9 SE 0.0 742.6
13:25 20.6 40.7 1012.0 8.4 ESE 19.6 SE 0.0 737.6
13:30 21.0 40.4 1011.9 5.7 SSE 16.9 SSE 0.0 728.9
13:35 21.4 39.7 1011.8 8.0 SSE 16.9 SE 0.0 721.0
13:40 21.1 40.2 1011.8 11.6 SSE 25.0 ESE 0.0 679.4
13:45 20.9 41.2 1011.8 9.1 S 25.0 SSW 0.0 710.0
13:50 21.0 41.5 1011.7 7.8 S 22.3 S 0.0 697.9
13:55 21.5 39.8 1011.6 6.1 SE 16.9 S 0.0 699.6
14:00 21.4 39.5 1011.5 7.2 ESE 22.3 SSE 0.0 649.2
14:05 20.8 40.1 1011.4 8.1 ESE 16.9 NE 0.0 674.1
14:10 20.6 41.0 1011.2 8.6 E 22.3 E 0.0 669.1
14:15 20.5 40.8 1011.1 8.6 ESE 25.0 SE 0.0 549.6
14:20 20.7 40.6 1010.9 8.9 ESE 25.0 S 0.0 547.2
14:25 20.8 40.4 1010.9 8.8 SE 19.6 ESE 0.0 466.7
14:30 20.9 40.1 1010.8 8.4 ESE 30.4 SSE 0.0 606.0
14:35 20.9 39.8 1010.8 8.3 ESE 22.3 ESE 0.0 477.7
14:40 20.8 40.2 1010.7 7.8 SE 30.4 E 0.0 575.5
14:45 21.1 39.9 1010.7 8.5 ESE 22.3 SE 0.0 534.3
14:50 21.1 40.3 1010.6 8.3 SE 19.6 SE 0.0 584.3
14:55 21.4 39.7 1010.6 9.1 ESE 19.6 ESE 0.0 572.0
15:00 21.4 40.0 1010.5 8.6 ESE 19.6 SSW 0.0 556.4
15:05 21.6 39.5 1010.4 8.2 SE 22.3 SSE 0.0 544.6
15:10 21.7 39.3 1010.3 9.5 ESE 25.0 ESE 0.0 530.5
15:15 21.7 39.3 1010.2 8.3 ESE 19.6 SE 0.0 518.7
15:20 21.7 39.3 1010.1 8.5 SE 22.3 SSE 0.0 412.8
15:25 21.7 39.4 1010.0 8.5 SE 27.7 SSE 0.0 456.6
15:30 21.8 39.0 1009.9 7.8 ESE 22.3 SE 0.0 480.0
15:35 22.0 39.0 1009.8 4.2 SE 11.5 SE 0.0 464.2
15:40 22.5 38.7 1009.9 4.6 S 16.9 SW 0.0 456.6
15:45 22.4 38.0 1009.8 11.4 SSW 25.0 S 0.0 440.8
15:50 22.1 39.0 1009.7 11.9 SSW 27.7 SSW 0.0 426.5
15:55 22.3 38.6 1009.7 11.0 SSW 27.7 SSW 0.0 415.4
16:00 22.2 38.4 1009.7 11.0 S 25.0 SSW 0.0 399.3
16:05 22.1 38.7 1009.6 8.0 S 16.9 SW 0.0 385.9
16:10 22.6 38.1 1009.6 5.9 S 14.2 SSE 0.0 370.0
16:15 22.7 37.4 1009.6 6.3 SSE 16.9 SE 0.0 356.9
16:20 22.3 37.8 1009.5 10.1 SE 22.3 SSE 0.0 341.7
16:25 21.7 38.7 1009.5 8.7 SE 19.6 ESE 0.0 325.8
16:30 21.8 38.6 1009.5 8.4 SSE 16.9 SSE 0.0 264.1
16:35 21.7 38.8 1009.6 10.7 S 19.6 SE 0.0 47.2
16:40 21.4 39.2 1009.7 7.2 S 16.9 SE 0.0 174.8
16:45 21.2 39.3 1009.7 10.0 S 19.6 SW 0.0 265.5
16:50 21.1 39.6 1009.7 10.2 SSE 22.3 SSW 0.0 225.0
16:55 21.0 39.7 1009.7 8.4 S 19.6 S 0.0 226.0
17:00 20.7 40.0 1009.8 8.5 S 22.3 S 0.0 168.6
17:05 20.0 40.8 1009.8 11.3 S 27.7 S 0.0 137.4
17:10 19.1 42.6 1009.8 13.3 SSW 33.1 SSW 0.0 58.8
17:15 18.6 43.7 1009.9 10.0 S 27.7 S 0.0 26.3
17:20 18.4 44.4 1010.0 6.8 S 22.3 SSW 0.0 23.7
17:25 18.4 44.1 1010.1 7.6 SSE 16.9 SSW 0.0 21.6
17:30 18.2 44.2 1010.1 9.1 SW 25.0 SW 0.0 19.3
17:35 18.1 44.1 1010.2 9.0 SSW 25.0 WSW 0.0 18.8
17:40 18.1 44.0 1010.4 5.3 SSE 11.5 SE 0.0 17.9
17:45 18.0 44.2 1010.4 8.1 ESE 25.0 SE 0.0 17.1
17:50 17.7 44.9 1010.6 6.9 SSE 25.0 SE 0.0 16.6
Máxima 22.8 91.2 1016.5 13.3 SSW 33.1 SSW 0.0 787.3
Mínima 7.1 37.4 1009.5
Total 0.0